createdAt,value
2023-03-13T00:01:38.938Z,6.65
2023-03-13T00:04:06.112Z,7.28
2023-03-13T00:06:35.620Z,8.52
2023-03-13T00:09:03.924Z,7.07
2023-03-13T00:11:30.541Z,7.00
2023-03-13T00:14:02.235Z,6.72
2023-03-13T00:16:29.225Z,7.22
2023-03-13T00:18:57.109Z,7.05
2023-03-13T00:21:26.152Z,7.25
2023-03-13T00:23:52.893Z,8.13
2023-03-13T00:26:22.191Z,7.10
2023-03-13T00:28:49.249Z,7.60
2023-03-13T00:31:21.703Z,7.22
2023-03-13T00:33:52.258Z,7.32
2023-03-13T00:36:21.279Z,7.18
2023-03-13T00:38:48.482Z,7.15
2023-03-13T00:41:19.987Z,7.95
2023-03-13T00:43:48.131Z,7.78
2023-03-13T00:46:16.473Z,7.10
2023-03-13T00:48:43.103Z,7.43
2023-03-13T00:51:11.060Z,7.93
2023-03-13T00:53:37.700Z,7.60
2023-03-13T00:56:09.714Z,7.40
2023-03-13T00:58:38.413Z,7.35
2023-03-13T01:01:09.926Z,7.25
2023-03-13T01:03:37.710Z,7.82
2023-03-13T01:06:06.151Z,6.57
2023-03-13T01:08:32.869Z,7.63
2023-03-13T01:11:01.418Z,7.82
2023-03-13T01:13:30.020Z,7.60
2023-03-13T01:15:57.499Z,6.82
2023-03-13T01:18:24.169Z,7.47
2023-03-13T01:20:50.700Z,7.05
2023-03-13T01:23:18.330Z,8.20
2023-03-13T01:25:44.927Z,6.88
2023-03-13T01:28:11.512Z,6.90
2023-03-13T01:30:38.116Z,7.03
2023-03-13T01:33:04.679Z,7.07
2023-03-13T01:35:31.537Z,6.72
2023-03-13T01:37:59.028Z,6.97
2023-03-13T01:40:25.753Z,6.90
2023-03-13T01:42:59.595Z,7.00
2023-03-13T01:45:53.689Z,6.18
2023-03-13T01:48:23.905Z,7.18
2023-03-13T01:50:50.635Z,6.38
2023-03-13T01:53:24.404Z,7.07
2023-03-13T01:55:52.402Z,6.90
2023-03-13T01:58:19.160Z,6.40
2023-03-13T02:00:46.556Z,6.78
2023-03-13T02:03:18.093Z,5.65
2023-03-13T02:05:46.493Z,5.90
2023-03-13T02:08:23.291Z,6.15
2023-03-13T02:11:04.659Z,5.47
2023-03-13T02:13:31.226Z,5.68
2023-03-13T02:15:57.907Z,5.90
2023-03-13T02:18:26.086Z,5.80
2023-03-13T02:20:58.457Z,5.15
2023-03-13T02:23:30.032Z,5.80
2023-03-13T02:25:56.747Z,5.00
2023-03-13T02:28:39.188Z,5.07
2023-03-13T02:31:09.854Z,4.82
2023-03-13T02:33:40.419Z,5.10
2023-03-13T02:36:07.849Z,4.72
2023-03-13T02:38:39.850Z,5.20
2023-03-13T02:41:06.745Z,5.35
2023-03-13T02:43:35.218Z,4.55
2023-03-13T02:46:14.972Z,4.75
2023-03-13T02:48:46.946Z,3.70
2023-03-13T02:51:27.149Z,4.15
2023-03-13T02:53:56.630Z,4.32
2023-03-13T02:56:25.950Z,5.15
2023-03-13T02:58:53.649Z,4.25
2023-03-13T03:01:23.691Z,4.60
2023-03-13T03:03:51.225Z,4.70
2023-03-13T03:06:17.832Z,3.92
2023-03-13T03:08:45.575Z,4.00
2023-03-13T03:11:13.070Z,4.30
2023-03-13T03:13:41.099Z,4.63
2023-03-13T03:16:09.705Z,3.75
2023-03-13T03:18:37.926Z,3.60
2023-03-13T03:21:06.343Z,3.90
2023-03-13T03:23:37.627Z,3.75
2023-03-13T03:26:05.489Z,4.03
2023-03-13T03:28:32.632Z,3.70
2023-03-13T03:31:05.648Z,3.67
2023-03-13T03:33:32.260Z,4.10
2023-03-13T03:36:03.745Z,4.10
2023-03-13T03:38:30.364Z,3.35
2023-03-13T03:40:57.087Z,4.07
2023-03-13T03:43:24.178Z,3.78
2023-03-13T03:45:51.105Z,3.95
2023-03-13T03:48:17.888Z,3.55
2023-03-13T03:50:44.542Z,3.80
2023-03-13T03:53:12.550Z,3.75
2023-03-13T03:55:40.157Z,3.92
2023-03-13T03:58:06.775Z,4.30
2023-03-13T04:00:53.421Z,3.40
2023-03-13T04:03:20.069Z,4.45
2023-03-13T04:05:46.671Z,3.88
2023-03-13T04:08:13.586Z,4.05
2023-03-13T04:10:40.452Z,4.32
2023-03-13T04:13:07.353Z,3.92
2023-03-13T04:15:34.069Z,4.38
2023-03-13T04:18:01.171Z,3.45
2023-03-13T04:20:28.921Z,4.32
2023-03-13T04:22:55.528Z,4.70
2023-03-13T04:25:22.166Z,4.53
2023-03-13T04:27:50.960Z,3.80
2023-03-13T04:30:20.217Z,3.70
2023-03-13T04:33:05.320Z,4.22
2023-03-13T04:35:46.476Z,4.18
2023-03-13T04:38:13.106Z,4.22
2023-03-13T04:41:05.527Z,3.40
2023-03-13T04:43:43.353Z,4.10
2023-03-13T04:46:19.447Z,3.97
2023-03-13T04:49:03.409Z,3.72
2023-03-13T04:51:44.910Z,4.13
2023-03-13T04:54:22.462Z,3.95
2023-03-13T04:57:05.149Z,4.43
2023-03-13T04:59:49.744Z,4.00
2023-03-13T05:02:26.149Z,3.90
2023-03-13T05:05:05.491Z,3.92
2023-03-13T05:07:50.693Z,3.88
2023-03-13T05:10:31.278Z,3.80
2023-03-13T05:13:09.676Z,3.90
2023-03-13T05:15:54.856Z,4.05
2023-03-13T05:18:36.675Z,4.57
2023-03-13T05:21:14.812Z,4.30
2023-03-13T05:24:03.166Z,5.75
2023-03-13T05:26:38.860Z,3.90
2023-03-13T05:29:26.936Z,4.03
2023-03-13T05:32:07.902Z,3.80
2023-03-13T05:34:54.757Z,5.38
2023-03-13T05:37:41.427Z,4.90
2023-03-13T05:40:26.601Z,5.72
2023-03-13T05:43:11.545Z,4.22
2023-03-13T05:46:01.166Z,4.00
2023-03-13T05:48:50.804Z,4.53
2023-03-13T05:51:43.282Z,5.20
2023-03-13T05:54:22.517Z,4.55
2023-03-13T05:57:12.270Z,4.75
2023-03-13T05:59:50.262Z,3.65
2023-03-13T06:02:39.348Z,4.85
2023-03-13T06:05:07.899Z,5.25
2023-03-13T06:07:37.730Z,5.30
2023-03-13T06:10:05.464Z,4.55
2023-03-13T06:12:32.104Z,4.30
2023-03-13T06:14:59.531Z,4.63
2023-03-13T06:17:42.144Z,4.97
2023-03-13T06:20:09.416Z,4.80
2023-03-13T06:22:35.957Z,4.47
2023-03-13T06:25:02.618Z,4.53
2023-03-13T06:27:29.169Z,4.45
2023-03-13T06:29:55.738Z,3.75
2023-03-13T06:32:22.359Z,3.85
2023-03-13T06:34:49.006Z,4.18
2023-03-13T06:37:15.851Z,4.15
2023-03-13T06:39:42.497Z,4.50
2023-03-13T06:42:09.177Z,4.80
2023-03-13T06:44:35.764Z,4.80
2023-03-13T06:47:02.470Z,4.78
2023-03-13T06:49:29.056Z,4.63
2023-03-13T06:51:58.795Z,4.47
2023-03-13T06:54:25.506Z,5.45
2023-03-13T06:56:52.120Z,5.72
2023-03-13T06:59:18.665Z,4.35
2023-03-13T07:01:46.059Z,5.38
2023-03-13T07:04:13.080Z,5.50
2023-03-13T07:06:39.767Z,4.95
2023-03-13T07:09:06.350Z,4.03
2023-03-13T07:11:39.021Z,4.72
2023-03-13T07:14:15.978Z,5.35
2023-03-13T07:16:49.775Z,4.63
2023-03-13T07:19:16.672Z,4.13
2023-03-13T07:21:44.237Z,5.15
2023-03-13T07:24:10.944Z,5.25
2023-03-13T07:26:37.826Z,4.65
2023-03-13T07:29:05.568Z,4.65
2023-03-13T07:31:34.167Z,4.15
2023-03-13T07:34:01.023Z,4.68
2023-03-13T07:36:28.083Z,4.32
2023-03-13T07:38:54.641Z,5.63
2023-03-13T07:41:21.379Z,4.60
2023-03-13T07:43:47.922Z,4.18
2023-03-13T07:46:18.681Z,4.25
2023-03-13T07:48:45.970Z,4.25
2023-03-13T07:51:30.272Z,3.80
2023-03-13T07:54:03.622Z,5.80
2023-03-13T07:56:30.167Z,4.82
2023-03-13T07:58:56.806Z,5.00
2023-03-13T08:01:27.845Z,4.90
2023-03-13T08:03:56.242Z,4.68
2023-03-13T08:06:27.365Z,4.18
2023-03-13T08:08:57.101Z,3.92
2023-03-13T08:11:25.369Z,4.10
2023-03-13T08:13:53.159Z,4.40
2023-03-13T08:16:38.092Z,4.75
2023-03-13T08:19:06.025Z,3.95
2023-03-13T08:21:35.312Z,5.18
2023-03-13T08:24:06.949Z,4.05
2023-03-13T08:26:35.640Z,4.05
2023-03-13T08:29:05.010Z,4.45
2023-03-13T08:31:34.367Z,4.28
2023-03-13T08:34:01.201Z,4.05
2023-03-13T08:36:30.749Z,4.72
2023-03-13T08:38:59.867Z,4.07
2023-03-13T08:41:32.260Z,3.92
2023-03-13T08:43:59.312Z,3.83
2023-03-13T08:46:26.054Z,4.35
2023-03-13T08:48:54.507Z,4.13
2023-03-13T08:51:23.877Z,4.63
2023-03-13T08:53:50.959Z,5.30
2023-03-13T08:56:19.546Z,3.83
2023-03-13T08:58:53.805Z,3.97
2023-03-13T09:01:22.119Z,3.80
2023-03-13T09:03:49.445Z,4.03
2023-03-13T09:06:16.283Z,3.50
2023-03-13T09:08:43.081Z,5.18
2023-03-13T09:11:14.520Z,3.70
2023-03-13T09:13:44.038Z,3.53
2023-03-13T09:16:13.198Z,3.90
2023-03-13T09:18:39.953Z,3.65
2023-03-13T09:21:10.094Z,3.53
2023-03-13T09:23:36.902Z,3.28
2023-03-13T09:26:03.760Z,3.05
2023-03-13T09:28:30.786Z,3.30
2023-03-13T09:31:07.160Z,3.80
2023-03-13T09:33:33.888Z,2.65
2023-03-13T09:36:00.530Z,3.17
2023-03-13T09:38:27.392Z,2.80
2023-03-13T09:41:05.585Z,3.10
2023-03-13T09:43:58.692Z,3.15
2023-03-13T09:46:31.378Z,3.08
2023-03-13T09:49:00.593Z,2.90
2023-03-13T09:51:36.694Z,2.63
2023-03-13T09:54:09.713Z,3.10
2023-03-13T09:56:42.468Z,2.70
2023-03-13T09:59:51.352Z,2.90
2023-03-13T10:02:22.117Z,3.08
2023-03-13T10:04:53.335Z,2.75
2023-03-13T10:07:21.393Z,2.70
2023-03-13T10:09:48.003Z,2.50
2023-03-13T10:12:21.427Z,3.00
2023-03-13T10:15:03.471Z,2.80
2023-03-13T10:17:33.491Z,3.00
2023-03-13T10:20:10.807Z,2.80
2023-03-13T10:22:38.007Z,2.65
2023-03-13T10:25:20.016Z,2.60
2023-03-13T10:27:51.175Z,3.05
2023-03-13T10:30:31.909Z,2.95
2023-03-13T10:33:19.360Z,2.60
2023-03-13T10:35:46.285Z,2.33
2023-03-13T10:38:19.175Z,2.20
2023-03-13T10:40:57.884Z,2.22
2023-03-13T10:43:25.620Z,2.75
2023-03-13T10:45:52.820Z,2.10
2023-03-13T10:48:25.394Z,2.08
2023-03-13T10:50:54.680Z,2.08
2023-03-13T10:53:25.118Z,2.00
2023-03-13T10:56:16.297Z,2.10
2023-03-13T10:58:44.890Z,1.63
2023-03-13T11:01:22.467Z,1.75
2023-03-13T11:03:50.852Z,1.88
2023-03-13T11:06:32.488Z,1.70
2023-03-13T11:09:12.774Z,1.40
2023-03-13T11:11:51.420Z,1.70
2023-03-13T11:14:20.403Z,1.35
2023-03-13T11:16:52.178Z,1.33
2023-03-13T11:19:25.919Z,1.30
2023-03-13T11:22:14.964Z,1.45
2023-03-13T11:24:50.543Z,1.20
2023-03-13T11:27:41.427Z,1.30
2023-03-13T11:30:41.466Z,0.90
2023-03-13T11:33:40.878Z,1.63
2023-03-13T11:36:33.770Z,0.80
2023-03-13T11:39:09.396Z,0.93
2023-03-13T11:41:55.167Z,0.90
2023-03-13T11:44:39.822Z,0.95
2023-03-13T11:47:49.050Z,1.35
2023-03-13T11:50:24.455Z,0.90
2023-03-13T11:52:59.843Z,1.23
2023-03-13T11:55:55.068Z,0.60
2023-03-13T11:58:41.961Z,0.77
2023-03-13T12:01:12.096Z,0.80
2023-03-13T12:03:56.495Z,0.90
2023-03-13T12:06:35.482Z,0.60
2023-03-13T12:09:12.771Z,0.80
2023-03-13T12:11:54.722Z,0.70
2023-03-13T12:14:43.766Z,0.70
2023-03-13T12:17:15.934Z,0.80
2023-03-13T12:19:49.530Z,0.82
2023-03-13T12:22:24.897Z,0.70
2023-03-13T12:25:15.396Z,0.40
2023-03-13T12:27:46.767Z,0.70
2023-03-13T12:30:22.933Z,0.60
2023-03-13T12:32:56.751Z,0.70
2023-03-13T12:35:28.983Z,0.60
2023-03-13T12:38:28.505Z,0.50
2023-03-13T12:41:24.783Z,0.63
2023-03-13T12:44:07.852Z,0.50
2023-03-13T12:46:43.084Z,0.50
2023-03-13T12:49:33.093Z,0.40
2023-03-13T12:52:21.442Z,0.55
2023-03-13T12:55:08.048Z,0.50
2023-03-13T12:58:10.619Z,0.50
2023-03-13T13:00:40.245Z,0.50
2023-03-13T13:03:22.689Z,0.47
2023-03-13T13:06:00.109Z,0.47
2023-03-13T13:08:27.348Z,0.60
2023-03-13T13:10:54.057Z,0.50
2023-03-13T13:13:31.750Z,0.60
2023-03-13T13:16:01.854Z,0.40
2023-03-13T13:18:30.662Z,0.40
2023-03-13T13:21:03.278Z,0.50
2023-03-13T13:23:38.950Z,0.65
2023-03-13T13:26:29.577Z,0.35
2023-03-13T13:29:22.442Z,0.40
2023-03-13T13:31:51.721Z,0.45
2023-03-13T13:34:31.100Z,0.50
2023-03-13T13:36:58.480Z,0.60
2023-03-13T13:39:48.270Z,0.40
2023-03-13T13:42:30.754Z,0.40
2023-03-13T13:45:01.823Z,0.70
2023-03-13T13:47:32.383Z,0.70
2023-03-13T13:50:00.561Z,0.40
2023-03-13T13:52:38.947Z,0.50
2023-03-13T13:55:30.425Z,0.57
2023-03-13T13:58:12.621Z,0.47
2023-03-13T14:00:45.796Z,0.60
2023-03-13T14:03:19.401Z,0.73
2023-03-13T14:05:48.023Z,0.80
2023-03-13T14:08:21.123Z,0.70
2023-03-13T14:11:24.153Z,0.68
2023-03-13T14:14:09.737Z,0.68
2023-03-13T14:16:37.637Z,0.70
2023-03-13T14:19:04.574Z,0.88
2023-03-13T14:21:31.174Z,0.60
2023-03-13T14:23:58.049Z,0.80
2023-03-13T14:26:27.588Z,0.57
2023-03-13T14:28:55.639Z,0.80
2023-03-13T14:31:28.721Z,0.70
2023-03-13T14:33:56.894Z,0.77
2023-03-13T14:36:23.674Z,0.93
2023-03-13T14:38:57.375Z,0.90
2023-03-13T14:41:33.467Z,0.60
2023-03-13T14:44:10.593Z,0.73
2023-03-13T14:46:40.791Z,0.90
2023-03-13T14:49:14.200Z,1.15
2023-03-13T14:51:41.011Z,0.70
2023-03-13T14:54:26.181Z,0.80
2023-03-13T14:57:23.616Z,0.90
2023-03-13T14:59:51.718Z,0.57
2023-03-13T15:02:27.188Z,0.77
2023-03-13T15:04:59.731Z,0.73
2023-03-13T15:07:29.691Z,0.80
2023-03-13T15:09:57.483Z,0.77
2023-03-13T15:12:24.332Z,0.60
2023-03-13T15:14:52.812Z,0.93
2023-03-13T15:17:23.420Z,0.82
2023-03-13T15:19:54.936Z,0.80
2023-03-13T15:22:28.489Z,0.70
2023-03-13T15:25:05.763Z,0.77
2023-03-13T15:27:33.818Z,0.60
2023-03-13T15:30:00.507Z,0.93
2023-03-13T15:32:36.424Z,0.70
2023-03-13T15:35:22.544Z,0.70
2023-03-13T15:37:49.125Z,0.55
2023-03-13T15:40:17.190Z,0.90
2023-03-13T15:42:43.858Z,0.80
2023-03-13T15:45:10.642Z,1.35
2023-03-13T15:47:37.307Z,0.60
2023-03-13T15:50:04.377Z,0.90
2023-03-13T15:52:31.301Z,0.77
2023-03-13T15:54:58.002Z,1.05
2023-03-13T15:57:26.497Z,0.88
2023-03-13T15:59:53.643Z,0.75
2023-03-13T16:02:24.283Z,0.70
2023-03-13T16:04:51.611Z,0.93
2023-03-13T16:07:20.744Z,0.73
2023-03-13T16:09:48.056Z,0.77
2023-03-13T16:12:14.808Z,1.63
2023-03-13T16:14:41.596Z,0.90
2023-03-13T16:17:18.948Z,0.90
2023-03-13T16:19:46.719Z,0.90
2023-03-13T16:22:14.482Z,0.90
2023-03-13T16:24:41.373Z,0.80
2023-03-13T16:27:16.445Z,1.10
2023-03-13T16:29:43.982Z,0.90
2023-03-13T16:32:16.031Z,0.88
2023-03-13T16:34:43.152Z,0.73
2023-03-13T16:37:13.758Z,0.90
2023-03-13T16:39:40.533Z,0.90
2023-03-13T16:42:07.707Z,1.05
2023-03-13T16:44:34.290Z,0.90
2023-03-13T16:47:05.965Z,0.77
2023-03-13T16:49:33.026Z,1.65
2023-03-13T16:51:59.568Z,1.08
2023-03-13T16:54:26.133Z,0.90
2023-03-13T16:56:52.720Z,0.88
2023-03-13T16:59:19.752Z,1.00
2023-03-13T17:01:47.234Z,0.90
2023-03-13T17:04:13.994Z,1.10
2023-03-13T17:06:42.548Z,1.00
2023-03-13T17:09:14.496Z,1.00
2023-03-13T17:11:41.856Z,0.98
2023-03-13T17:14:08.557Z,1.20
2023-03-13T17:16:36.944Z,1.15
2023-03-13T17:19:04.085Z,0.90
2023-03-13T17:21:32.124Z,0.80
2023-03-13T17:24:02.130Z,1.00
2023-03-13T17:26:33.071Z,1.08
2023-03-13T17:29:00.551Z,0.80
2023-03-13T17:31:28.164Z,1.00
2023-03-13T17:33:54.808Z,1.15
2023-03-13T17:36:27.292Z,0.90
2023-03-13T17:39:01.437Z,1.10
2023-03-13T17:41:30.001Z,0.90
2023-03-13T17:43:56.912Z,0.95
2023-03-13T17:46:26.021Z,1.05
2023-03-13T17:48:53.850Z,1.00
2023-03-13T17:51:22.592Z,0.93
2023-03-13T17:53:49.658Z,1.55
2023-03-13T17:56:27.599Z,1.63
2023-03-13T17:58:57.857Z,1.77
2023-03-13T18:01:26.714Z,1.00
2023-03-13T18:03:53.705Z,1.90
2023-03-13T18:06:50.546Z,1.80
2023-03-13T18:09:20.802Z,1.10
2023-03-13T18:11:48.387Z,1.10
2023-03-13T18:14:15.075Z,0.90
2023-03-13T18:16:48.005Z,1.10
2023-03-13T18:19:25.122Z,1.10
2023-03-13T18:21:54.200Z,1.17
2023-03-13T18:24:21.594Z,1.20
2023-03-13T18:26:49.389Z,1.13
2023-03-13T18:29:26.445Z,1.10
2023-03-13T18:31:58.998Z,1.02
2023-03-13T18:34:25.919Z,0.90
2023-03-13T18:36:53.033Z,1.10
2023-03-13T18:39:20.301Z,1.00
2023-03-13T18:41:48.427Z,1.15
2023-03-13T18:44:16.295Z,0.95
2023-03-13T18:46:43.676Z,1.27
2023-03-13T18:49:13.320Z,1.00
2023-03-13T18:51:40.010Z,1.10
2023-03-13T18:54:06.584Z,0.90
2023-03-13T18:56:33.201Z,1.08
2023-03-13T18:59:01.617Z,1.20
2023-03-13T19:01:30.025Z,1.15
2023-03-13T19:03:59.422Z,0.90
2023-03-13T19:06:36.845Z,1.10
2023-03-13T19:09:40.957Z,0.70
2023-03-13T19:12:02.103Z,1.50
2023-03-13T19:14:28.777Z,1.70
2023-03-13T19:16:57.629Z,1.30
2023-03-13T19:19:26.351Z,2.00
2023-03-13T19:21:56.279Z,3.00
2023-03-13T19:24:26.602Z,8.45
2023-03-13T19:26:59.017Z,3.60
2023-03-13T19:29:27.732Z,3.35
2023-03-13T19:31:59.231Z,2.15
2023-03-13T19:34:25.902Z,1.40
2023-03-13T19:36:53.475Z,1.17
2023-03-13T19:39:25.297Z,1.40
2023-03-13T19:41:52.938Z,1.90
2023-03-13T19:44:20.182Z,1.95
2023-03-13T19:46:47.142Z,1.38
2023-03-13T19:49:16.646Z,1.38
2023-03-13T19:51:43.646Z,1.65
2023-03-13T19:54:10.846Z,1.17
2023-03-13T19:56:39.389Z,1.10
2023-03-13T19:59:28.166Z,1.88
2023-03-13T20:01:57.686Z,1.20
2023-03-13T20:04:25.193Z,1.52
2023-03-13T20:06:51.852Z,1.63
2023-03-13T20:09:20.262Z,1.73
2023-03-13T20:11:46.897Z,1.80
2023-03-13T20:14:13.546Z,1.40
2023-03-13T20:16:40.155Z,1.40
2023-03-13T20:19:06.849Z,1.80
2023-03-13T20:21:35.648Z,1.73
2023-03-13T20:24:02.515Z,2.00
2023-03-13T20:26:29.498Z,1.70
2023-03-13T20:28:57.090Z,1.80
2023-03-13T20:31:29.474Z,2.20
2023-03-13T20:33:57.035Z,2.45
2023-03-13T20:36:24.249Z,2.60
2023-03-13T20:38:50.883Z,2.70
2023-03-13T20:41:19.266Z,2.75
2023-03-13T20:43:45.833Z,2.67
2023-03-13T20:46:12.557Z,2.92
2023-03-13T20:48:39.828Z,3.17
2023-03-13T20:51:07.904Z,4.32
2023-03-13T20:53:39.388Z,2.90
2023-03-13T20:56:08.071Z,2.22
2023-03-13T20:58:35.558Z,2.88
2023-03-13T21:01:03.717Z,3.40
2023-03-13T21:03:35.166Z,2.55
2023-03-13T21:06:12.926Z,2.20
2023-03-13T21:08:39.779Z,1.80
2023-03-13T21:11:14.426Z,1.98
2023-03-13T21:13:41.193Z,2.40
2023-03-13T21:16:08.277Z,2.10
2023-03-13T21:18:35.105Z,1.50
2023-03-13T21:21:06.147Z,1.58
2023-03-13T21:23:32.926Z,1.50
2023-03-13T21:26:00.676Z,1.55
2023-03-13T21:28:28.278Z,1.70
2023-03-13T21:30:55.909Z,1.40
2023-03-13T21:33:22.882Z,1.30
2023-03-13T21:35:50.218Z,1.30
2023-03-13T21:38:17.716Z,1.20
2023-03-13T21:40:44.458Z,1.30
2023-03-13T21:43:11.042Z,1.13
2023-03-13T21:45:37.746Z,1.27
2023-03-13T21:48:04.436Z,1.10
2023-03-13T21:50:32.716Z,0.98
2023-03-13T21:52:59.351Z,0.88
2023-03-13T21:55:25.964Z,1.00
2023-03-13T21:57:52.596Z,0.90
2023-03-13T22:00:19.337Z,0.80
2023-03-13T22:02:46.003Z,0.82
2023-03-13T22:05:12.677Z,1.00
2023-03-13T22:07:39.282Z,0.90
2023-03-13T22:10:06.190Z,0.80
2023-03-13T22:12:32.742Z,0.82
2023-03-13T22:14:59.493Z,1.52
2023-03-13T22:17:26.054Z,0.80
2023-03-13T22:19:52.613Z,0.73
2023-03-13T22:22:21.989Z,1.02
2023-03-13T22:24:48.863Z,0.80
2023-03-13T22:27:15.696Z,0.60
2023-03-13T22:29:42.242Z,0.60
2023-03-13T22:32:09.707Z,0.75
2023-03-13T22:34:36.388Z,0.80
2023-03-13T22:37:03.071Z,0.60
2023-03-13T22:39:29.661Z,0.60
2023-03-13T22:41:56.438Z,1.25
2023-03-13T22:44:22.985Z,1.00
2023-03-13T22:46:49.801Z,0.95
2023-03-13T22:49:16.393Z,0.55
2023-03-13T22:51:42.962Z,0.60
2023-03-13T22:54:09.519Z,0.60
2023-03-13T22:56:36.286Z,0.60
2023-03-13T22:59:03.689Z,0.70
2023-03-13T23:01:30.408Z,0.73
2023-03-13T23:03:57.018Z,0.65
2023-03-13T23:06:25.385Z,0.60
2023-03-13T23:08:52.539Z,0.55
2023-03-13T23:11:19.649Z,0.43
2023-03-13T23:13:46.301Z,0.50
2023-03-13T23:16:13.213Z,0.60
2023-03-13T23:18:41.384Z,0.70
2023-03-13T23:21:10.855Z,0.40
2023-03-13T23:23:37.612Z,0.60
2023-03-13T23:26:06.157Z,0.50
2023-03-13T23:28:34.213Z,0.80
2023-03-13T23:31:03.083Z,0.50
2023-03-13T23:33:29.796Z,0.52
2023-03-13T23:35:56.401Z,0.52
2023-03-13T23:38:25.417Z,0.50
2023-03-13T23:40:53.233Z,0.57
2023-03-13T23:43:19.787Z,0.50
2023-03-13T23:45:46.355Z,0.60
2023-03-13T23:48:12.997Z,0.65
2023-03-13T23:50:39.628Z,0.60
2023-03-13T23:53:06.198Z,0.60
2023-03-13T23:55:32.793Z,0.50
2023-03-13T23:57:59.560Z,0.70
